Portada
METAR-TAF:

METAR-TAF

Aeropuertos :

Aeropuerto Internacional Ingeniero Ambrosio Taravella

Córdoba, Argentina

latitud: 31-19S, longitud: 064-13W, altitud: 484 m

Observación

El informe se hizo hace 1 hora y 8 minutos, a las 18:00 UTC
Viento 16 kt del norte-noreste
Temperatura 23°C
Humedad 31%
Presión 1019 hPa
Visibilidad 10 km o más
sin nubes por debajo de 1500 m y sin presencia de cumulonimbus.

METAR: SACO 181800Z 02016KT CAVOK 23/05 Q1019 NOSIG

Hora: 16:08 (19:08 UTC)

Pronóstico

El informe se hizo hace 2 horas y 8 minutos, a las 17:00 UTC
Pronóstico válido del 18 a las 18 UTC al 19 a las 18 UTC
Viento 10 kt del norte-noreste
Visibilidad 10 km o más
Nubes dispersas a una altura de 4000 ft
Evolucionando progresivamente
del 19 a las 06 UTC al 19 a las 09 UTC
Viento 10 kt del norte

TAF: SACO 181700Z 1818/1918 02010KT 9999 SCT040 TX23/1918Z TNM02/1909Z BECMG 1906/1909 36010KT

Observaciones y pronósticos meteorológicos de más de 4000 aeropuertos (mensajes METAR y TAF).

Los puntos amarillos y rojos representan las estaciones disponibles.

Ponga el ratón en el punto deseado para ver el nombre de la estación.

Haga clic para ver las observaciones y los pronósticos meteorológicos.

Para cambiar el mapa : haga clic en los botones verdes con una cruz de color negro para hacer un zoom, en el botón verde con un guión para alejar o en las flechas verdes para mapas adyacentes.


METAR-TAF: